• Join FlightAware (Why Join?)
  • Login
  • US Flag 
12:12AM EDT


 

Airport Tracker/Info


-or-


 

Live Flight TrackerFlight Track Log ✈ N600TR ✈ 15-Aug-2013 ✈ KAVL - KATL

Flight Track Log - Related Links

Times and Time Zones

All times are in EDT time to prevent confusion due to time zone crossing. See the N600TR flight status page for this flight to view local times or setup timezone preferences in your user account.

Time Position Orientation Groundspeed Altitude Reporting Facility
EDT Latitude Longitude Course Direction KTS MPH feet Rate Location/Type
07:19AM 35.5208 -82.6661 225° Southwest 249 287 5,900  Level Atlanta Center
07:20AM 35.1872 -82.7795 219° Southwest  Level FlightAware Approximate
07:20AM 35.4753 -82.7153 221° Southwest 251 289 8,100  Level Atlanta Center
07:21AM 35.1253 -82.8414 219° Southwest  Level FlightAware Approximate
07:21AM 35.4092 -82.7569 207° Southwest 257 296 10,400  Level Atlanta Center
07:22AM 35.0634 -82.9033 219° Southwest  Level FlightAware Approximate
07:22AM 35.3261 -82.8017 204° Southwest 289 333 11,500  Level Atlanta Center
07:23AM 35.0015 -82.9652 219° Southwest  Level FlightAware Approximate
07:23AM 35.2431 -82.8436 202° Southwest 319 367 14,000  Level Atlanta Center
07:24AM 34.9404 -83.0282 225° Southwest  Level FlightAware Approximate
07:24AM 35.1578 -82.8906 204° Southwest 330 380 16,400  Level Atlanta Center
07:25AM 35.0708 -82.9500 209° Southwest 346 398 18,100 1,740 Climbing Atlanta Center
07:26AM 34.9858 -83.0169 213° Southwest 353 406 19,900 1,740 Climbing Atlanta Center
07:27AM 34.9050 -83.0992 220° Southwest 376 433 21,600 1,020 Climbing Atlanta Center
07:28AM 34.8283 -83.1758 219° Southwest 389 448 22,000 180 Climbing Atlanta Center
07:29AM 34.7353 -83.2678 219° Southwest 399 459 22,000  Level Atlanta Center
07:30AM 34.6667 -83.3317 217° Southwest 399 459 22,000 -1,080 Level Atlanta Center
07:31AM 34.5711 -83.4006 211° Southwest 378 435 19,900 -2,160 Descending Atlanta Center
07:32AM 34.4900 -83.4767 218° Southwest 378 435 17,700 -2,280 Descending Atlanta Center
07:33AM 34.4153 -83.5503 219° Southwest 361 415 15,400 -1,800 Descending Atlanta Center
07:34AM 34.3319 -83.6264 217° Southwest 351 404 14,100 -720 Descending Atlanta Center
07:35AM 34.2550 -83.6944 216° Southwest 346 398 14,000 -60 Descending Atlanta Center
07:36AM 34.1697 -83.7728 217° Southwest 370 426 14,000  Level Atlanta Center
07:37AM 34.0800 -83.8533 217° Southwest 397 457 14,000 -180 Level Atlanta Center
07:38AM 34.0031 -83.9436 224° Southwest 398 458 13,700 -780 Descending Atlanta Center
07:39AM 33.9278 -84.0339 225° Southwest 387 445 12,500 -900 Descending Atlanta Center
07:40AM 33.8569 -84.1289 228° Southwest 387 445 12,000 -300 Descending Atlanta Center
07:41AM 33.8025 -84.2039 229° Southwest 363 418 12,000  Level Atlanta Center
07:42AM 33.7522 -84.2811 232° Southwest 320 368 12,000 -480 Level Atlanta Center
07:43AM 33.7292 -84.3611 251° West 269 310 11,100 -1,260 Descending Atlanta Center
07:44AM 33.7333 -84.4833 272° West 245 282 8,900 -1,380 Descending Atlanta TRACON
07:45AM 33.7333 -84.5667 270° West 236 272 7,700 -1,380 Descending Atlanta TRACON
07:46AM 33.7333 -84.6500 270° West 239 275 6,200 -1,260 Descending Atlanta TRACON
07:47AM 33.7333 -84.7333 270° West 241 277 5,200 -600 Descending Atlanta TRACON
07:48AM 33.7333 -84.8000 270° West 237 273 5,000 -120 Descending Atlanta TRACON
07:49AM 33.7333 -84.8833 270° West 238 274 5,000  Level Atlanta TRACON
07:50AM 33.6833 -84.9000 196° South 200 230 5,000  Level Atlanta TRACON
07:51AM 33.6500 -84.8333 121° Southeast 194 223 5,000  Level Atlanta TRACON
07:52AM 33.6500 -84.7833 90° East 198 228 5,000  Level Atlanta TRACON
07:53AM 33.6500 -84.7167 90° East 195 224 5,000 -360 Level Atlanta TRACON
07:54AM 33.6500 -84.6500 90° East 195 224 4,300 -840 Descending Atlanta TRACON
07:55AM 33.6500 -84.6000 90° East 176 203 3,500 -960 Descending Atlanta TRACON
07:56AM 33.6500 -84.5333 90° East 167 192 2,500 -900 Descending Atlanta TRACON
07:57AM 33.6500 -84.4833 90° East 124 143 1,800 -660 Descending Atlanta TRACON
07:58AM 33.6500 -84.4500 90° East 132 152 1,200 -600 Descending Atlanta TRACON